Time;durP1;ratioP1;P1;durP2;ratioP2;P2;SDS_P1;SDS_P2;PMS_P1;PMS_P2;Temp;Humidity;BMP_temperature;BMP_pressure;BME280_temperature;BME280_humidity;BME280_pressure;Samples;Min_cycle;Max_cycle;Signal;HPM_P1;HPM_P2
2021/10/12 00:00:34;;;;;;;8.02;1.92;;;11.20;99.90;;;;;;5072511;28;20013;-75
2021/10/12 00:03:00;;;;;;;10.20;2.30;;;11.20;99.90;;;;;;5071460;28;20051;-75
2021/10/12 00:05:25;;;;;;;11.20;2.30;;;11.20;99.90;;;;;;5071942;28;20017;-75
2021/10/12 00:07:52;;;;;;;9.35;2.33;;;11.20;99.90;;;;;;5072008;28;20037;-76
2021/10/12 00:10:17;;;;;;;6.95;2.20;;;11.20;99.90;;;;;;5071734;28;20028;-76
2021/10/12 00:12:43;;;;;;;10.32;2.10;;;11.20;99.90;;;;;;5071977;28;20023;-77
2021/10/12 00:15:09;;;;;;;13.18;2.58;;;11.20;99.90;;;;;;5072268;28;20112;-76
2021/10/12 00:17:35;;;;;;;9.52;1.92;;;11.30;99.90;;;;;;5071876;28;20017;-76
2021/10/12 00:20:00;;;;;;;9.40;1.80;;;11.20;99.90;;;;;;5072156;28;20367;-75
2021/10/12 00:22:26;;;;;;;6.78;1.55;;;11.20;99.90;;;;;;5071790;28;20039;-75
2021/10/12 00:24:54;;;;;;;9.10;1.98;;;11.20;99.90;;;;;;5070771;28;20021;-76
2021/10/12 00:27:20;;;;;;;4.00;1.50;;;11.20;99.90;;;;;;5071975;28;20029;-76
2021/10/12 00:29:45;;;;;;;8.32;2.10;;;11.20;99.90;;;;;;5071603;28;20017;-76
2021/10/12 00:32:11;;;;;;;7.68;1.67;;;11.20;99.90;;;;;;5071431;28;20104;-77
2021/10/12 00:34:36;;;;;;;6.25;1.52;;;11.10;99.90;;;;;;5071727;28;20036;-77
2021/10/12 00:37:02;;;;;;;7.13;1.83;;;11.10;99.90;;;;;;5071263;28;20031;-76
2021/10/12 00:39:28;;;;;;;9.35;1.95;;;11.20;99.90;;;;;;5070889;28;20017;-77
2021/10/12 00:41:53;;;;;;;6.93;1.65;;;11.20;99.90;;;;;;5071411;28;20039;-77
2021/10/12 00:44:19;;;;;;;7.10;1.50;;;11.30;99.90;;;;;;5071282;28;20021;-77
2021/10/12 00:46:45;;;;;;;3.40;1.10;;;11.30;99.90;;;;;;5072789;28;20032;-77
2021/10/12 00:49:11;;;;;;;6.07;1.10;;;11.30;99.90;;;;;;5072516;28;20028;-77
2021/10/12 00:51:36;;;;;;;6.50;1.40;;;11.20;99.90;;;;;;5072616;28;20025;-77
2021/10/12 00:54:02;;;;;;;10.48;1.63;;;11.20;99.90;;;;;;5072094;28;20024;-77
2021/10/12 00:56:27;;;;;;;14.07;2.22;;;11.20;99.90;;;;;;5072013;28;20024;-76
2021/10/12 00:58:53;;;;;;;8.48;1.70;;;11.20;99.90;;;;;;5070960;28;20492;-76
2021/10/12 01:01:19;;;;;;;6.93;1.25;;;11.20;99.90;;;;;;5074029;28;20074;-76
2021/10/12 01:03:45;;;;;;;7.68;1.63;;;11.20;99.90;;;;;;5075134;28;20028;-76
2021/10/12 01:06:10;;;;;;;5.55;1.48;;;11.20;99.90;;;;;;5074907;28;20028;-76
2021/10/12 01:08:36;;;;;;;4.68;1.15;;;11.10;99.90;;;;;;5075081;28;20031;-76
2021/10/12 01:11:02;;;;;;;6.32;1.75;;;11.10;99.90;;;;;;5075241;28;20107;-77
2021/10/12 01:13:27;;;;;;;8.65;1.63;;;11.10;99.90;;;;;;5074767;28;20107;-76
2021/10/12 01:15:53;;;;;;;14.10;1.75;;;11.10;99.90;;;;;;5075647;28;20094;-75
2021/10/12 01:18:19;;;;;;;7.45;1.20;;;11.10;99.90;;;;;;5075496;28;20357;-74
2021/10/12 01:20:45;;;;;;;7.25;1.40;;;11.10;99.90;;;;;;5074202;28;20472;-75
2021/10/12 01:23:13;;;;;;;5.65;1.38;;;11.10;99.90;;;;;;5075060;28;20040;-76
2021/10/12 01:25:39;;;;;;;4.13;1.23;;;11.10;99.90;;;;;;5075200;28;20028;-77
2021/10/12 01:28:08;;;;;;;5.10;1.13;;;11.10;99.90;;;;;;5074223;28;20021;-76
2021/10/12 01:30:36;;;;;;;8.18;1.30;;;11.10;99.90;;;;;;5075356;28;20029;-75
2021/10/12 01:33:02;;;;;;;7.97;1.27;;;11.00;99.90;;;;;;5074824;28;20028;-75
2021/10/12 01:35:28;;;;;;;15.07;2.47;;;11.00;99.90;;;;;;5074004;28;20076;-74
2021/10/12 01:37:54;;;;;;;7.45;2.25;;;11.00;99.90;;;;;;5074445;28;20082;-77
2021/10/12 01:40:19;;;;;;;7.32;1.50;;;10.90;99.90;;;;;;5074880;28;20021;-76
2021/10/12 01:42:46;;;;;;;9.27;1.30;;;10.90;99.90;;;;;;5073637;28;20148;-77
2021/10/12 01:45:12;;;;;;;11.32;1.52;;;10.90;99.90;;;;;;5074332;28;20051;-76
2021/10/12 01:47:38;;;;;;;8.45;1.50;;;10.90;99.90;;;;;;5074103;28;20024;-76
2021/10/12 01:50:05;;;;;;;8.45;1.75;;;10.80;99.90;;;;;;5074046;28;20036;-76
2021/10/12 01:52:31;;;;;;;3.95;1.15;;;10.80;99.90;;;;;;5074440;28;20098;-76
2021/10/12 01:54:56;;;;;;;4.53;1.13;;;10.80;99.90;;;;;;5073636;28;20044;-76
2021/10/12 01:57:22;;;;;;;13.98;1.77;;;10.80;99.90;;;;;;5074489;28;20032;-76
2021/10/12 01:59:47;;;;;;;7.03;1.60;;;10.70;99.90;;;;;;5074084;28;20020;-75
2021/10/12 02:02:13;;;;;;;9.10;1.50;;;10.70;99.90;;;;;;5073616;28;20510;-76
2021/10/12 02:04:39;;;;;;;4.53;1.13;;;10.70;99.90;;;;;;5074190;28;20028;-77
2021/10/12 02:07:04;;;;;;;8.75;1.92;;;10.70;99.90;;;;;;5073851;28;20024;-77
2021/10/12 02:09:30;;;;;;;9.25;1.88;;;10.70;99.90;;;;;;5073582;28;20552;-74
2021/10/12 02:11:56;;;;;;;7.03;1.35;;;10.70;99.90;;;;;;5073053;28;20388;-77
2021/10/12 02:14:22;;;;;;;6.53;1.95;;;10.70;99.90;;;;;;5074112;28;20028;-74
2021/10/12 02:16:49;;;;;;;4.88;1.38;;;10.80;99.90;;;;;;5073187;28;20021;-75
2021/10/12 02:19:14;;;;;;;9.52;1.45;;;10.80;99.90;;;;;;5073932;28;20400;-76
2021/10/12 02:21:40;;;;;;;3.92;1.55;;;10.80;99.90;;;;;;5073941;28;20021;-75
2021/10/12 02:24:05;;;;;;;5.55;1.48;;;10.80;99.90;;;;;;5073406;28;20036;-75
2021/10/12 02:26:31;;;;;;;5.07;1.17;;;10.80;99.90;;;;;;5074121;28;20140;-76
2021/10/12 02:28:57;;;;;;;7.20;1.23;;;10.80;99.90;;;;;;5073630;28;20474;-76
2021/10/12 02:31:22;;;;;;;10.20;1.58;;;10.80;99.90;;;;;;5073284;28;20092;-76
2021/10/12 02:33:48;;;;;;;4.43;1.58;;;10.80;99.90;;;;;;5073347;28;20028;-77
2021/10/12 02:36:14;;;;;;;8.43;1.73;;;10.80;99.90;;;;;;5073407;28;20492;-75
2021/10/12 02:38:40;;;;;;;5.13;1.60;;;10.80;99.90;;;;;;5072613;28;20487;-77
2021/10/12 02:41:06;;;;;;;5.53;1.33;;;10.80;99.90;;;;;;5073763;28;20028;-76
2021/10/12 02:43:32;;;;;;;6.40;1.70;;;10.80;99.90;;;;;;5073519;28;20028;-77
2021/10/12 02:45:58;;;;;;;8.15;1.88;;;10.80;99.90;;;;;;5072092;28;20105;-75
2021/10/12 02:48:24;;;;;;;8.07;1.50;;;10.80;99.90;;;;;;5073220;28;20044;-75
2021/10/12 02:50:49;;;;;;;6.43;1.67;;;10.80;99.90;;;;;;5072345;28;20491;-76
2021/10/12 02:53:15;;;;;;;4.28;1.30;;;10.90;99.90;;;;;;5073130;28;20021;-76
2021/10/12 02:55:41;;;;;;;11.18;1.63;;;10.90;99.90;;;;;;5074727;28;20067;-76
2021/10/12 02:58:07;;;;;;;7.18;1.77;;;10.80;99.90;;;;;;5073358;28;20024;-75
2021/10/12 03:00:33;;;;;;;6.68;2.30;;;10.90;99.90;;;;;;5073548;28;20413;-75
2021/10/12 03:02:58;;;;;;;7.72;1.63;;;10.90;99.90;;;;;;5072345;28;20039;-78
2021/10/12 03:05:24;;;;;;;6.68;1.70;;;10.90;99.90;;;;;;5072194;28;20021;-76
2021/10/12 03:07:50;;;;;;;8.23;1.90;;;10.90;99.90;;;;;;5072931;28;20025;-76
2021/10/12 03:10:15;;;;;;;2.47;1.40;;;10.90;99.90;;;;;;5072804;28;20099;-75
2021/10/12 03:12:41;;;;;;;4.97;1.73;;;10.90;99.90;;;;;;5072177;28;20033;-75
2021/10/12 03:15:07;;;;;;;8.45;1.40;;;10.90;99.90;;;;;;5072715;28;20024;-74
2021/10/12 03:17:33;;;;;;;6.85;1.80;;;10.90;99.90;;;;;;5072703;28;20025;-77
2021/10/12 03:19:59;;;;;;;8.98;2.10;;;10.90;99.90;;;;;;5071489;28;20024;-75
2021/10/12 03:22:25;;;;;;;6.22;1.80;;;10.90;99.90;;;;;;5072770;28;20040;-76
2021/10/12 03:24:50;;;;;;;12.07;2.90;;;10.90;99.90;;;;;;5071365;28;20017;-76
2021/10/12 03:27:16;;;;;;;9.32;2.30;;;10.90;99.90;;;;;;5072018;28;20403;-76
2021/10/12 03:29:42;;;;;;;4.38;1.70;;;10.90;99.90;;;;;;5072431;28;20031;-76
2021/10/12 03:32:08;;;;;;;8.45;2.40;;;10.90;99.90;;;;;;5072299;28;20099;-75
2021/10/12 03:34:34;;;;;;;8.15;2.33;;;10.90;99.90;;;;;;5071476;28;20044;-75
2021/10/12 03:37:01;;;;;;;8.18;1.90;;;10.90;99.90;;;;;;5072169;28;20032;-74
2021/10/12 03:39:29;;;;;;;10.75;2.20;;;10.90;99.90;;;;;;5072413;28;20035;-75
2021/10/12 03:41:55;;;;;;;7.47;2.10;;;10.90;99.90;;;;;;5071210;28;20369;-76
2021/10/12 03:44:22;;;;;;;6.68;2.70;;;10.90;99.90;;;;;;5072323;28;20083;-76
2021/10/12 03:46:48;;;;;;;10.40;2.70;;;10.90;99.90;;;;;;5071374;28;20032;-76
2021/10/12 03:49:14;;;;;;;4.68;2.15;;;10.90;99.90;;;;;;5071385;28;20032;-76
2021/10/12 03:51:42;;;;;;;4.85;2.13;;;10.90;99.90;;;;;;5072429;28;20032;-76
2021/10/12 03:54:08;;;;;;;6.75;2.63;;;10.90;99.90;;;;;;5071478;28;20104;-76
2021/10/12 03:56:34;;;;;;;7.53;2.45;;;10.90;99.90;;;;;;5072177;28;20111;-76
2021/10/12 03:58:59;;;;;;;11.20;2.70;;;10.90;99.90;;;;;;5071877;28;20103;-75
2021/10/12 04:01:25;;;;;;;3.90;1.75;;;10.80;99.90;;;;;;5071062;28;20034;-76
2021/10/12 04:03:52;;;;;;;9.82;2.05;;;10.90;99.90;;;;;;5072434;28;20090;-76
2021/10/12 04:06:18;;;;;;;6.72;2.30;;;10.90;99.90;;;;;;5072151;28;20021;-76
2021/10/12 04:08:44;;;;;;;11.98;2.50;;;10.90;99.90;;;;;;5071456;28;20545;-78
2021/10/12 04:11:10;;;;;;;8.07;2.30;;;10.90;99.90;;;;;;5072313;28;20016;-74
2021/10/12 04:13:35;;;;;;;7.70;2.33;;;10.80;99.90;;;;;;5072054;28;20021;-76
2021/10/12 04:16:02;;;;;;;8.00;3.08;;;10.80;99.90;;;;;;5071115;28;20040;-75
2021/10/12 04:18:28;;;;;;;3.92;2.42;;;10.90;99.90;;;;;;5067473;28;20013;-74
2021/10/12 04:20:54;;;;;;;11.70;2.83;;;10.90;99.90;;;;;;5062462;28;20021;-76
2021/10/12 04:23:19;;;;;;;8.77;2.28;;;10.90;99.90;;;;;;5071293;28;20039;-75
2021/10/12 04:25:45;;;;;;;5.13;2.35;;;10.90;99.90;;;;;;5072232;28;20350;-77
2021/10/12 04:28:12;;;;;;;6.88;2.90;;;10.90;99.90;;;;;;5072408;28;20025;-76
2021/10/12 04:30:40;;;;;;;10.30;2.75;;;11.00;99.90;;;;;;5071267;28;20043;-75
2021/10/12 04:33:05;;;;;;;8.85;3.38;;;11.00;99.90;;;;;;5071851;28;20027;-75
2021/10/12 04:35:31;;;;;;;8.85;3.00;;;11.00;99.90;;;;;;5073221;28;20044;-76
2021/10/12 04:37:56;;;;;;;10.30;3.58;;;11.00;99.90;;;;;;5074856;28;20029;-73
2021/10/12 04:40:23;;;;;;;7.45;3.70;;;11.00;99.90;;;;;;5072755;28;20017;-75
2021/10/12 04:42:49;;;;;;;9.27;3.83;;;11.10;99.90;;;;;;5065509;28;20051;-75
2021/10/12 04:45:14;;;;;;;11.82;4.55;;;11.10;99.90;;;;;;5074955;28;20457;-75
2021/10/12 04:47:41;;;;;;;5.43;3.95;;;11.10;99.90;;;;;;5075924;28;20017;-75
2021/10/12 04:50:07;;;;;;;10.93;4.70;;;11.10;99.90;;;;;;5075291;28;20427;-75
2021/10/12 04:52:33;;;;;;;8.35;4.78;;;11.10;99.90;;;;;;5074741;28;20357;-73
2021/10/12 04:54:58;;;;;;;11.75;4.90;;;11.10;99.90;;;;;;5074474;28;20021;-75
2021/10/12 04:57:24;;;;;;;10.27;5.25;;;11.10;99.90;;;;;;5074529;28;20162;-76
2021/10/12 04:59:49;;;;;;;9.18;4.40;;;11.10;99.90;;;;;;5074239;28;20107;-76
2021/10/12 05:02:15;;;;;;;9.45;4.55;;;11.10;99.90;;;;;;5075796;28;20023;-75
2021/10/12 05:04:40;;;;;;;9.52;5.15;;;11.10;99.90;;;;;;5074807;28;20030;-76
2021/10/12 05:07:06;;;;;;;12.18;4.43;;;11.10;99.90;;;;;;5075021;28;20047;-73
2021/10/12 05:09:32;;;;;;;12.52;5.35;;;11.10;99.90;;;;;;5075292;28;20024;-74
2021/10/12 05:11:57;;;;;;;8.27;4.88;;;11.10;99.90;;;;;;5074825;28;20016;-76
2021/10/12 05:14:23;;;;;;;7.13;4.70;;;11.10;99.90;;;;;;5075193;28;20111;-76
2021/10/12 05:16:50;;;;;;;11.15;4.18;;;11.10;99.90;;;;;;5075173;28;20016;-75
2021/10/12 05:19:17;;;;;;;18.88;6.43;;;11.10;99.90;;;;;;5074819;28;20024;-74
2021/10/12 05:21:43;;;;;;;9.93;5.55;;;11.10;99.90;;;;;;5060887;28;20023;-76
2021/10/12 05:24:08;;;;;;;10.13;5.70;;;11.10;99.90;;;;;;5075375;28;20029;-77
2021/10/12 05:26:35;;;;;;;10.80;5.53;;;11.10;99.90;;;;;;5074052;28;20024;-76
2021/10/12 05:29:01;;;;;;;11.27;5.15;;;11.10;99.90;;;;;;5074428;28;20028;-76
2021/10/12 05:31:26;;;;;;;15.25;5.53;;;11.10;99.90;;;;;;5075178;28;20078;-75
2021/10/12 05:33:52;;;;;;;13.05;5.13;;;11.20;99.90;;;;;;5074236;28;20031;-75
2021/10/12 05:36:18;;;;;;;9.25;5.00;;;11.20;99.90;;;;;;5063503;28;20091;-75
2021/10/12 05:38:45;;;;;;;13.00;5.13;;;11.20;99.90;;;;;;5072233;28;20029;-76
2021/10/12 05:41:11;;;;;;;11.20;5.13;;;11.20;99.90;;;;;;5076895;28;20047;-75
2021/10/12 05:43:38;;;;;;;12.82;5.68;;;11.20;99.90;;;;;;5089362;28;20463;-75
2021/10/12 05:46:03;;;;;;;14.98;6.00;;;11.20;99.90;;;;;;5090509;28;20488;-75
2021/10/12 05:48:29;;;;;;;15.82;6.00;;;11.20;99.90;;;;;;5090100;28;20035;-76
2021/10/12 05:50:55;;;;;;;16.33;5.88;;;11.20;99.90;;;;;;5088645;28;20150;-78
2021/10/12 05:53:25;;;;;;;14.63;6.00;;;11.20;99.90;;;;;;5086872;28;20073;-76
2021/10/12 05:58:30;;;;;;;12.02;6.35;;;11.10;99.90;;;;;;5086551;28;20630;-75
2021/10/12 06:00:56;;;;;;;10.10;5.57;;;11.20;99.90;;;;;;5090787;28;20035;-76
2021/10/12 06:03:21;;;;;;;17.00;7.00;;;11.20;99.90;;;;;;5088749;28;20036;-76
2021/10/12 06:05:48;;;;;;;11.82;6.78;;;11.20;99.90;;;;;;5091520;28;20110;-76
2021/10/12 06:08:13;;;;;;;10.85;6.88;;;11.10;99.90;;;;;;5086959;28;20025;-76
2021/10/12 06:10:39;;;;;;;10.13;6.03;;;11.10;99.90;;;;;;5090735;28;20507;-75
2021/10/12 06:13:11;;;;;;;13.73;7.13;;;11.20;99.90;;;;;;5081043;28;20477;-75
2021/10/12 06:15:40;;;;;;;13.38;5.90;;;11.20;99.90;;;;;;5084190;28;20021;-73
2021/10/12 06:18:05;;;;;;;11.65;5.80;;;11.20;99.90;;;;;;5090782;28;20048;-74
2021/10/12 06:20:31;;;;;;;14.65;6.03;;;11.20;99.90;;;;;;5087867;28;20113;-74
2021/10/12 06:22:57;;;;;;;13.45;7.13;;;11.20;99.90;;;;;;5087965;28;20036;-77
2021/10/12 06:25:22;;;;;;;18.75;9.10;;;11.30;99.90;;;;;;5085476;28;20089;-75
2021/10/12 06:27:48;;;;;;;18.92;8.70;;;11.30;99.90;;;;;;5090177;28;20035;-77
2021/10/12 06:30:13;;;;;;;19.40;6.78;;;11.30;99.90;;;;;;5086157;28;20380;-77
2021/10/12 06:32:39;;;;;;;14.43;8.10;;;11.30;99.90;;;;;;5084671;28;20078;-76
2021/10/12 06:35:06;;;;;;;27.95;16.05;;;11.20;99.90;;;;;;5080246;28;20051;-74
2021/10/12 06:37:31;;;;;;;19.35;9.05;;;11.30;99.90;;;;;;5082110;28;20028;-76
2021/10/12 06:39:57;;;;;;;25.95;8.95;;;11.30;99.90;;;;;;5086940;28;20028;-77
2021/10/12 06:42:23;;;;;;;18.98;7.80;;;11.50;99.90;;;;;;5085065;28;20032;-76
2021/10/12 06:44:49;;;;;;;12.48;5.15;;;11.40;99.90;;;;;;5087838;28;20074;-75
2021/10/12 06:47:15;;;;;;;14.05;4.20;;;11.40;99.90;;;;;;5086038;28;20033;-76
2021/10/12 06:49:40;;;;;;;10.07;4.78;;;11.40;99.90;;;;;;5085749;28;20016;-74
2021/10/12 06:52:06;;;;;;;18.20;5.05;;;11.50;99.90;;;;;;5085948;28;20101;-76
2021/10/12 06:54:31;;;;;;;10.75;4.50;;;11.60;99.90;;;;;;5085844;28;20088;-76
2021/10/12 06:56:59;;;;;;;11.35;3.92;;;11.70;99.90;;;;;;5086715;28;20565;-77
2021/10/12 06:59:24;;;;;;;11.25;3.63;;;11.80;99.90;;;;;;5081737;28;20047;-75
2021/10/12 07:01:52;;;;;;;11.02;3.30;;;11.80;99.90;;;;;;5083761;28;20462;-76
2021/10/12 07:04:26;;;;;;;7.60;3.08;;;11.80;99.90;;;;;;5086053;28;20426;-75
2021/10/12 07:06:52;;;;;;;12.20;2.78;;;11.90;99.90;;;;;;5087066;28;20065;-73
2021/10/12 07:09:17;;;;;;;19.92;2.90;;;12.00;99.90;;;;;;5082992;28;20024;-76
2021/10/12 07:11:43;;;;;;;11.45;2.40;;;12.00;99.90;;;;;;5082493;28;20067;-76
2021/10/12 07:14:10;;;;;;;10.88;2.50;;;12.10;99.90;;;;;;5085657;28;20550;-75
2021/10/12 07:16:36;;;;;;;13.20;1.70;;;12.10;99.90;;;;;;5080663;28;20107;-75
2021/10/12 07:19:01;;;;;;;5.35;1.83;;;12.10;99.90;;;;;;5083990;28;20111;-75
2021/10/12 07:21:27;;;;;;;7.70;1.63;;;12.10;99.90;;;;;;5083982;28;20024;-76
2021/10/12 07:23:53;;;;;;;8.23;1.55;;;12.10;99.90;;;;;;5084994;28;20025;-76
2021/10/12 07:26:18;;;;;;;4.85;1.60;;;12.10;99.90;;;;;;5083959;28;20020;-76
2021/10/12 07:28:44;;;;;;;9.98;1.60;;;12.10;99.90;;;;;;5073412;28;20031;-77
2021/10/12 07:31:10;;;;;;;9.57;1.65;;;12.20;99.90;;;;;;5076296;28;20027;-77
2021/10/12 07:33:36;;;;;;;8.55;2.20;;;12.20;99.90;;;;;;5080867;28;20034;-78
2021/10/12 07:36:02;;;;;;;6.57;1.30;;;12.20;99.90;;;;;;5073498;28;20552;-76
2021/10/12 07:38:28;;;;;;;10.93;2.22;;;12.30;99.90;;;;;;5065224;28;20107;-77
2021/10/12 07:40:54;;;;;;;6.97;2.53;;;12.40;99.90;;;;;;5072181;28;20140;-76
2021/10/12 07:43:24;;;;;;;11.45;2.60;;;12.40;99.90;;;;;;5073246;28;20050;-77
2021/10/12 07:45:50;;;;;;;13.70;2.38;;;12.40;99.90;;;;;;5072573;28;20012;-77
2021/10/12 07:48:17;;;;;;;12.10;2.30;;;12.50;99.90;;;;;;5071779;28;20035;-77
2021/10/12 07:50:43;;;;;;;8.80;2.28;;;12.50;99.90;;;;;;5072397;28;20099;-76
2021/10/12 07:53:10;;;;;;;10.18;2.90;;;12.50;99.90;;;;;;5076272;28;20089;-76
2021/10/12 07:55:48;;;;;;;10.20;3.65;;;12.60;99.90;;;;;;5088200;28;20479;-76
2021/10/12 07:58:14;;;;;;;6.68;2.10;;;12.60;99.90;;;;;;5083885;28;20057;-79
2021/10/12 08:00:40;;;;;;;19.23;3.42;;;12.60;99.90;;;;;;5075548;28;20485;-78
2021/10/12 08:03:07;;;;;;;12.45;2.58;;;12.60;99.90;;;;;;5075357;28;20044;-76
2021/10/12 08:05:33;;;;;;;13.82;3.03;;;12.60;99.90;;;;;;5072374;28;20492;-79
2021/10/12 08:07:58;;;;;;;10.43;2.83;;;12.70;99.90;;;;;;5075216;28;20035;-77
2021/10/12 08:10:25;;;;;;;13.57;3.40;;;12.80;99.90;;;;;;5075429;28;20101;-75
2021/10/12 08:12:56;;;;;;;11.77;3.42;;;12.90;99.90;;;;;;5078860;28;20078;-77
2021/10/12 08:15:22;;;;;;;;;;;12.90;99.90;;;;;;5078890;28;20023;-78
2021/10/12 08:17:48;;;;;;;11.27;2.15;;;13.10;99.90;;;;;;5079152;28;19904;-78
2021/10/12 08:20:14;;;;;;;12.50;2.35;;;13.10;99.90;;;;;;5079072;28;20249;-79
2021/10/12 08:22:40;;;;;;;13.32;2.17;;;13.10;99.90;;;;;;5078536;28;20051;-77
2021/10/12 08:25:08;;;;;;;17.63;2.45;;;13.20;99.90;;;;;;5082071;28;20086;-76
2021/10/12 08:27:35;;;;;;;11.00;2.50;;;13.20;99.90;;;;;;5079321;28;20104;-76
2021/10/12 08:30:01;;;;;;;11.43;2.00;;;13.20;99.90;;;;;;5077831;28;20020;-76
2021/10/12 08:32:26;;;;;;;10.50;2.00;;;13.20;99.90;;;;;;5092312;28;20027;-77
2021/10/12 08:34:52;;;;;;;10.30;2.53;;;13.30;99.90;;;;;;5079089;28;20032;-78
2021/10/12 08:37:17;;;;;;;6.68;1.52;;;13.30;99.90;;;;;;5078031;28;20032;-79
2021/10/12 08:39:43;;;;;;;18.45;2.55;;;13.40;99.90;;;;;;5078594;28;20016;-75
2021/10/12 08:42:33;;;;;;;9.45;1.92;;;13.50;99.90;;;;;;5079178;28;20037;-78
2021/10/12 08:45:07;;;;;;;10.23;2.15;;;13.70;99.90;;;;;;5067563;28;20028;-78
2021/10/12 08:47:35;;;;;;;11.18;2.50;;;13.90;99.90;;;;;;5079510;28;20513;-77
2021/10/12 08:50:03;;;;;;;12.40;2.63;;;14.10;99.90;;;;;;5083889;28;20032;-78
2021/10/12 08:52:28;;;;;;;10.68;2.08;;;14.10;99.90;;;;;;5085941;28;20016;-76
2021/10/12 08:54:55;;;;;;;10.18;1.75;;;14.20;99.90;;;;;;5081256;28;20032;-75
2021/10/12 08:57:36;;;;;;;4.45;1.77;;;14.20;99.90;;;;;;5079079;28;20016;-79
2021/10/12 09:00:13;;;;;;;10.55;2.15;;;14.20;99.90;;;;;;5078003;28;20423;-77
2021/10/12 09:03:26;;;;;;;11.73;1.92;;;14.30;99.90;;;;;;5075083;28;20025;-76
2021/10/12 09:05:53;;;;;;;8.43;1.80;;;14.30;99.90;;;;;;5076400;28;20111;-77
2021/10/12 09:08:22;;;;;;;13.52;2.20;;;14.40;99.90;;;;;;5078185;28;20099;-77
2021/10/12 09:10:48;;;;;;;9.77;3.07;;;14.40;99.90;;;;;;5084816;28;20366;-79
2021/10/12 09:13:14;;;;;;;8.02;2.10;;;14.40;99.90;;;;;;5088809;28;20143;-77
2021/10/12 09:15:39;;;;;;;14.02;2.33;;;14.50;99.90;;;;;;5087076;28;20020;-77
2021/10/12 09:18:05;;;;;;;10.73;2.08;;;14.60;99.90;;;;;;5083868;28;20372;-77
2021/10/12 09:20:31;;;;;;;11.60;1.92;;;14.70;99.90;;;;;;5079497;28;20547;-77
2021/10/12 09:23:12;;;;;;;12.32;2.58;;;14.90;99.90;;;;;;5081051;28;20044;-77
2021/10/12 09:25:42;;;;;;;;;;;15.10;99.90;;;;;;5070093;28;20021;-76
2021/10/12 09:28:21;;;;;;;8.75;1.50;;;15.20;99.90;;;;;;5072916;28;19995;-76
2021/10/12 09:30:47;;;;;;;7.37;1.70;;;15.40;99.90;;;;;;5071487;28;20073;-76
2021/10/12 09:33:13;;;;;;;13.55;1.70;;;15.40;99.90;;;;;;5072503;28;20275;-77
2021/10/12 09:35:38;;;;;;;4.68;1.85;;;15.40;99.90;;;;;;5074015;28;20052;-77
2021/10/12 09:38:10;;;;;;;11.15;2.15;;;16.10;99.90;;;;;;5073302;28;20064;-77
2021/10/12 09:40:44;;;;;;;9.55;1.63;;;15.10;99.90;;;;;;5072388;28;20438;-78
2021/10/12 09:43:10;;;;;;;13.23;1.73;;;14.80;99.90;;;;;;5072609;28;20035;-76
2021/10/12 09:45:44;;;;;;;7.78;1.90;;;14.50;99.90;;;;;;5073099;28;20016;-75
2021/10/12 09:48:33;;;;;;;14.15;1.73;;;14.10;99.90;;;;;;5071970;28;20085;-75
2021/10/12 09:51:06;;;;;;;9.00;2.03;;;13.70;99.90;;;;;;5069251;28;20024;-75
2021/10/12 09:53:31;;;;;;;10.43;1.75;;;13.50;99.90;;;;;;5072130;28;20032;-74
2021/10/12 09:55:58;;;;;;;11.23;2.20;;;13.30;99.90;;;;;;5079610;28;20029;-75
2021/10/12 09:58:25;;;;;;;6.90;1.50;;;13.10;99.90;;;;;;5081428;28;20029;-75
2021/10/12 10:00:52;;;;;;;8.85;1.73;;;12.90;99.90;;;;;;5081476;28;20176;-75
2021/10/12 10:03:18;;;;;;;4.38;1.63;;;12.80;99.90;;;;;;5080719;28;20749;-74
2021/10/12 10:05:45;;;;;;;4.43;1.17;;;12.70;99.90;;;;;;5078307;28;20027;-75
2021/10/12 10:08:11;;;;;;;5.95;1.73;;;12.60;99.90;;;;;;5078902;28;20035;-74
2021/10/12 10:10:38;;;;;;;7.53;1.27;;;12.60;99.90;;;;;;5080240;28;20023;-74
2021/10/12 10:13:04;;;;;;;5.78;1.17;;;12.50;99.90;;;;;;5082145;28;20122;-75
2021/10/12 10:15:30;;;;;;;6.35;1.23;;;12.50;99.90;;;;;;5075120;28;20020;-75
2021/10/12 10:17:57;;;;;;;5.93;1.00;;;12.40;99.90;;;;;;5083401;28;20035;-75
2021/10/12 10:20:24;;;;;;;3.38;0.82;;;12.40;99.90;;;;;;5081309;28;20098;-75
2021/10/12 10:22:52;;;;;;;5.60;1.17;;;12.30;99.90;;;;;;5080722;28;20036;-75
2021/10/12 10:25:40;;;;;;;4.65;0.98;;;12.30;99.90;;;;;;5079031;28;20036;-75
2021/10/12 10:28:22;;;;;;;13.65;1.33;;;12.30;99.90;;;;;;5080241;28;20055;-75
2021/10/12 10:30:57;;;;;;;4.95;0.90;;;12.40;99.90;;;;;;5078356;28;20024;-77
2021/10/12 10:33:27;;;;;;;3.40;0.82;;;12.40;99.90;;;;;;5074690;28;20102;-77
2021/10/12 10:36:00;;;;;;;5.57;0.90;;;12.50;99.90;;;;;;5081171;28;20373;-75
2021/10/12 10:38:31;;;;;;;2.90;0.82;;;12.60;99.90;;;;;;5081336;28;20028;-76
2021/10/12 10:41:02;;;;;;;3.22;0.73;;;12.70;99.90;;;;;;5073304;28;20029;-75
2021/10/12 10:43:48;;;;;;;2.30;0.88;;;12.70;99.90;;;;;;5070717;28;20400;-76
2021/10/12 10:46:32;;;;;;;3.20;0.55;;;12.80;99.90;;;;;;5071296;28;20025;-75
2021/10/12 10:49:07;;;;;;;4.50;1.20;;;12.80;99.90;;;;;;5072009;28;20028;-76
2021/10/12 10:51:55;;;;;;;3.60;0.60;;;12.70;99.90;;;;;;5071093;28;20020;-75
2021/10/12 10:54:39;;;;;;;3.20;0.55;;;12.70;99.90;;;;;;5069006;28;20044;-74
2021/10/12 10:57:16;;;;;;;1.33;0.50;;;12.60;99.90;;;;;;5070659;28;20403;-76
2021/10/12 10:59:42;;;;;;;4.75;0.77;;;12.50;99.90;;;;;;5071232;28;20017;-77
2021/10/12 11:02:26;;;;;;;6.78;0.65;;;12.60;99.90;;;;;;5072266;28;20102;-75
2021/10/12 11:04:52;;;;;;;3.88;0.40;;;12.50;99.90;;;;;;5073750;28;20039;-75
2021/10/12 11:07:23;;;;;;;2.30;0.50;;;12.50;99.90;;;;;;5074380;28;20103;-76
2021/10/12 11:09:49;;;;;;;2.28;1.05;;;12.50;99.90;;;;;;5081354;28;20024;-77
2021/10/12 11:12:31;;;;;;;0.43;0.32;;;12.50;99.90;;;;;;5078861;28;20043;-75
2021/10/12 11:15:09;;;;;;;2.08;0.60;;;12.50;99.90;;;;;;5072847;28;20028;-75
2021/10/12 11:17:35;;;;;;;3.70;0.52;;;12.60;99.90;;;;;;5073851;28;20028;-75
2021/10/12 11:20:10;;;;;;;2.53;0.60;;;12.60;99.90;;;;;;5075708;28;20154;-74
2021/10/12 11:22:42;;;;;;;3.30;0.38;;;12.70;99.90;;;;;;5078744;28;20035;-74
2021/10/12 11:25:09;;;;;;;2.92;0.57;;;12.70;99.90;;;;;;5076368;28;20040;-77
2021/10/12 11:27:48;;;;;;;1.42;0.50;;;12.80;99.90;;;;;;5078766;28;20012;-76
2021/10/12 11:30:16;;;;;;;3.65;0.70;;;12.80;99.90;;;;;;5072432;28;20028;-75
2021/10/12 11:32:42;;;;;;;4.88;0.88;;;12.90;99.90;;;;;;5070128;28;20025;-76
2021/10/12 11:35:12;;;;;;;0.82;0.63;;;13.00;99.90;;;;;;5070726;28;20052;-77
2021/10/12 11:37:51;;;;;;;2.03;0.80;;;13.00;99.90;;;;;;5071235;28;20048;-76
2021/10/12 11:40:19;;;;;;;2.00;0.80;;;13.10;99.90;;;;;;5071793;28;20209;-76
2021/10/12 11:42:45;;;;;;;1.48;0.50;;;13.10;99.90;;;;;;5072926;28;20388;-76
2021/10/12 11:45:11;;;;;;;4.10;0.70;;;13.20;99.90;;;;;;5069628;28;20025;-76
2021/10/12 11:47:37;;;;;;;1.15;0.80;;;13.30;99.90;;;;;;5069970;28;20028;-75
2021/10/12 11:50:10;;;;;;;1.55;0.68;;;13.40;99.90;;;;;;5070627;28;20035;-76
2021/10/12 11:52:36;;;;;;;0.80;0.75;;;13.50;99.90;;;;;;5069832;28;20024;-75
2021/10/12 11:55:05;;;;;;;2.65;0.90;;;13.60;99.90;;;;;;5075800;28;20028;-74
2021/10/12 11:57:31;;;;;;;0.73;0.70;;;13.60;99.90;;;;;;5078492;28;20025;-75
2021/10/12 11:59:57;;;;;;;4.40;1.05;;;13.60;99.90;;;;;;5082288;28;20055;-74
2021/10/12 12:02:23;;;;;;;4.57;1.17;;;13.60;99.90;;;;;;5077352;28;20466;-75
2021/10/12 12:04:50;;;;;;;3.38;1.13;;;13.60;99.90;;;;;;5077026;28;20060;-75
2021/10/12 12:07:17;;;;;;;4.93;1.45;;;13.70;99.90;;;;;;5078070;28;20016;-75
2021/10/12 12:09:45;;;;;;;1.27;0.60;;;13.70;99.90;;;;;;5080636;28;20035;-74
2021/10/12 12:12:11;;;;;;;0.95;0.47;;;13.60;99.90;;;;;;5079755;28;20115;-74
2021/10/12 12:14:37;;;;;;;1.15;0.60;;;13.50;99.90;;;;;;5083966;28;20103;-75
2021/10/12 12:17:13;;;;;;;4.28;0.45;;;13.30;99.90;;;;;;5077280;28;20395;-75
2021/10/12 12:19:44;;;;;;;1.85;0.40;;;13.20;99.90;;;;;;5069971;28;20028;-74
2021/10/12 12:22:16;;;;;;;1.65;0.60;;;13.20;99.90;;;;;;5068780;28;20502;-76
2021/10/12 12:24:53;;;;;;;3.72;0.60;;;13.30;99.90;;;;;;5070429;28;20116;-76
2021/10/12 12:27:19;;;;;;;2.50;0.60;;;13.50;99.90;;;;;;5069664;28;20488;-78
2021/10/12 12:29:55;;;;;;;1.80;0.63;;;13.60;99.90;;;;;;5069003;28;20464;-75
2021/10/12 12:32:21;;;;;;;3.25;0.77;;;13.80;99.90;;;;;;5069875;28;20028;-75
2021/10/12 12:35:02;;;;;;;3.13;0.55;;;13.80;99.90;;;;;;5069311;28;20051;-76
2021/10/12 12:37:28;;;;;;;3.90;0.70;;;13.70;99.90;;;;;;5078442;28;20078;-75
2021/10/12 12:39:54;;;;;;;1.73;0.57;;;13.50;99.90;;;;;;5078237;28;20029;-76
2021/10/12 12:42:37;;;;;;;0.98;0.60;;;13.30;99.90;;;;;;5061513;28;20044;-75
2021/10/12 12:45:10;;;;;;;0.80;0.50;;;13.10;99.90;;;;;;5065289;28;20078;-76
2021/10/12 12:47:36;;;;;;;2.05;0.60;;;13.00;99.90;;;;;;5067135;28;20051;-74